Amy-c — MKWC7 — position and weather

sailwx.info

Track history (hours):
 
Tides and Currents Weather Stations Pressure Air Temp Water Temp Dewpoint Dewpoint Depression Visibility Wind Speed Wind Dir Waves Ship Positions

Amy-c

Last reported at 2015-Feb-12 16:24 UTC. Time now 2015-Mar-29 04:27 UTC.
Position N 38°12' W 030°26'.
Warning: this ship's position is 44 days out of date.

Length 137 m; draft 8.8 m.

Type: Cargo ship. MMSI: 235010170.

Date/timePositionNaut miles runAvg speedWind from/ knotsBaromVisibWave heightAir tempDewpointWater temp
2015-Feb-12 16:24N 38°12' W 030°26'1113.5
2015-Feb-12 15:34N 38°16' W 030°12'1413.5
2015-Feb-12 14:33N 38°21' W 029°56'1313.2
2015-Feb-12 13:34N 38°27' W 029°41'1313.2
2015-Feb-12 12:33N 38°32' W 029°25'1313.1
2015-Feb-12 11:33N 38°37' W 029°10'1313.4
2015-Feb-12 10:34N 38°41' W 028°54'1313.1
2015-Feb-12 09:33N 38°46' W 028°38'1313.0
2015-Feb-12 08:33N 38°50' W 028°22'1312.9
2015-Feb-12 07:34N 38°54' W 028°06'1313.0
2015-Feb-12 06:33N 38°58' W 027°51'1313.0
2015-Feb-12 05:33N 39°04' W 027°36'1312.9
2015-Feb-12 04:33N 39°11' W 027°21'1412.8
2015-Feb-12 03:28N 39°18' W 027°06'3213.5
2015-Feb-12 01:06N 39°35' W 026°31'1013.6
2015-Feb-12 00:23N 39°40' W 026°20'1113.4
2015-Feb-11 23:32N 39°46' W 026°08'  
2015-Feb-08 05:17N 50°13' W 001°35'1216.8
2015-Feb-08 04:33N 50°16' W 001°16'1616.7
2015-Feb-08 03:33N 50°21' W 000°51'1915.5
2015-Feb-08 02:20N 50°26' W 000°23'2613.7
2015-Feb-08 00:24N 50°33' E 000°17'1112.4
2015-Feb-07 23:33N 50°36' E 000°33'1312.8
2015-Feb-07 22:33N 50°44' E 000°49'1914.8
2015-Feb-07 21:15N 50°56' E 001°12'1216.7
2015-Feb-07 20:33N 51°03' E 001°27'1616.3
2015-Feb-07 19:33N 51°15' E 001°46'1414.3
2015-Feb-07 18:33N 51°26' E 001°59'1312.9
2015-Feb-07 17:33N 51°37' E 002°11'2712.2
2015-Feb-07 15:21N 51°57' E 002°39'7514.2
2015-Feb-07 10:04N 52°56' E 003°57'3512.8
2015-Feb-07 07:19N 53°23' E 004°34'911.8
2015-Feb-07 06:33N 53°29' E 004°44'1313.4
2015-Feb-07 05:33N 53°34' E 005°05'1514.6
2015-Feb-07 04:34N 53°39' E 005°29'1514.7
2015-Feb-07 03:33N 53°44' E 005°52'5313.3
2015-Feb-06 23:33N 53°58' E 007°19'1212.0
2015-Feb-06 22:33N 54°01' E 007°38'1211.9
2015-Feb-06 21:33N 54°01' E 007°59'1211.8
2015-Feb-06 20:33N 54°00' E 008°19'1413.9
2015-Feb-06 19:33N 53°55' E 008°41'1413.6
2015-Feb-06 18:33N 53°52' E 009°03'4 3.8
2015-Feb-06 17:33N 53°54' E 009°09'2 1.5
2015-Feb-06 16:32N 53°55' E 009°11'0 0.0
2015-Feb-06 15:32N 53°55' E 009°11'0 0.0
2015-Feb-06 14:32N 53°55' E 009°11'0 0.0
2015-Feb-06 13:32N 53°55' E 009°11'0 0.2
2015-Feb-06 12:32N 53°55' E 009°11'0 0.0
2015-Feb-06 11:33N 53°55' E 009°11'0 0.0
2015-Feb-06 10:33N 53°55' E 009°11'0 0.0
2015-Feb-06 09:33N 53°55' E 009°11'0 0.0
2015-Feb-06 08:33N 53°55' E 009°11'0 0.0
2015-Feb-06 07:33N 53°55' E 009°11'5 5.0
2015-Feb-06 06:33N 53°59' E 009°17'7 7.2
2015-Feb-06 05:33N 54°06' E 009°20'11 5.3
2015-Feb-06 03:33N 54°12' E 009°34'6 6.2
2015-Feb-06 02:31N 54°18' E 009°40'2 2.3
2015-Feb-06 01:33N 54°19' E 009°43'5 5.0
2015-Feb-06 00:33N 54°22' E 009°50'6 6.2
2015-Feb-05 23:33N 54°21' E 010°01'3 3.0
2015-Feb-05 22:33N 54°22' E 010°06'2 1.7
2015-Feb-05 21:33N 54°22' E 010°09'7 6.9
2015-Feb-05 20:33N 54°28' E 010°15'1110.9
2015-Feb-05 19:33N 54°33' E 010°31'4013.2
2015-Feb-05 16:33N 54°28' E 011°39'1413.8
2015-Feb-05 15:32N 54°26' E 012°03'1212.6
2015-Feb-05 14:34N 54°36' E 012°15'1413.6
2015-Feb-05 13:34N 54°44' E 012°33'1313.4
2015-Feb-05 12:34N 54°50' E 012°54'1413.7
2015-Feb-05 11:30N 54°54' E 013°18'1314.0
2015-Feb-05 10:33N 54°59' E 013°40'1913.6
2015-Feb-05 09:11N 55°07' E 014°09'1013.8
2015-Feb-05 08:26N 55°15' E 014°20'11 3.5
2015-Feb-05 05:17N 55°25' E 014°29'0 0.0
2015-Feb-05 03:29N 55°25' E 014°29'0 0.0
2015-Feb-05 02:23N 55°25' E 014°29'0 0.0
2015-Feb-04 21:15N 55°25' E 014°29'6 9.2
2015-Feb-04 20:33N 55°27' E 014°40'1414.0
2015-Feb-04 19:31N 55°34' E 015°02'  
Track history (hours):
 
Tides and Currents Weather Stations Pressure Air Temp Water Temp Dewpoint Dewpoint Depression Visibility Wind Speed Wind Dir Waves Ship Positions

Amy-c

Last reported at 2015-Feb-12 16:24 UTC. Time now 2015-Mar-29 04:27 UTC.
Position N 38°12' W 030°26'.
Warning: this ship's position is 44 days out of date.

Length 137 m; draft 8.8 m.

Type: Cargo ship. MMSI: 235010170.

Date/timePositionNaut miles runAvg speedWind from/ knotsBaromVisibWave heightAir tempDewpointWater temp
2015-Feb-12 16:24N 38°12' W 030°26'1113.5
2015-Feb-12 15:34N 38°16' W 030°12'1413.5
2015-Feb-12 14:33N 38°21' W 029°56'1313.2
2015-Feb-12 13:34N 38°27' W 029°41'1313.2
2015-Feb-12 12:33N 38°32' W 029°25'1313.1
2015-Feb-12 11:33N 38°37' W 029°10'1313.4
2015-Feb-12 10:34N 38°41' W 028°54'1313.1
2015-Feb-12 09:33N 38°46' W 028°38'1313.0
2015-Feb-12 08:33N 38°50' W 028°22'1312.9
2015-Feb-12 07:34N 38°54' W 028°06'1313.0
2015-Feb-12 06:33N 38°58' W 027°51'1313.0
2015-Feb-12 05:33N 39°04' W 027°36'1312.9
2015-Feb-12 04:33N 39°11' W 027°21'1412.8
2015-Feb-12 03:28N 39°18' W 027°06'3213.5
2015-Feb-12 01:06N 39°35' W 026°31'1013.6
2015-Feb-12 00:23N 39°40' W 026°20'1113.4
2015-Feb-11 23:32N 39°46' W 026°08'  
2015-Feb-08 05:17N 50°13' W 001°35'1216.8
2015-Feb-08 04:33N 50°16' W 001°16'1616.7
2015-Feb-08 03:33N 50°21' W 000°51'1915.5
2015-Feb-08 02:20N 50°26' W 000°23'2613.7
2015-Feb-08 00:24N 50°33' E 000°17'1112.4
2015-Feb-07 23:33N 50°36' E 000°33'1312.8
2015-Feb-07 22:33N 50°44' E 000°49'1914.8
2015-Feb-07 21:15N 50°56' E 001°12'1216.7
2015-Feb-07 20:33N 51°03' E 001°27'1616.3
2015-Feb-07 19:33N 51°15' E 001°46'1414.3
2015-Feb-07 18:33N 51°26' E 001°59'1312.9
2015-Feb-07 17:33N 51°37' E 002°11'2712.2
2015-Feb-07 15:21N 51°57' E 002°39'7514.2
2015-Feb-07 10:04N 52°56' E 003°57'3512.8
2015-Feb-07 07:19N 53°23' E 004°34'911.8
2015-Feb-07 06:33N 53°29' E 004°44'1313.4
2015-Feb-07 05:33N 53°34' E 005°05'1514.6
2015-Feb-07 04:34N 53°39' E 005°29'1514.7
2015-Feb-07 03:33N 53°44' E 005°52'5313.3
2015-Feb-06 23:33N 53°58' E 007°19'1212.0
2015-Feb-06 22:33N 54°01' E 007°38'1211.9
2015-Feb-06 21:33N 54°01' E 007°59'1211.8
2015-Feb-06 20:33N 54°00' E 008°19'1413.9
2015-Feb-06 19:33N 53°55' E 008°41'1413.6
2015-Feb-06 18:33N 53°52' E 009°03'4 3.8
2015-Feb-06 17:33N 53°54' E 009°09'2 1.5
2015-Feb-06 16:32N 53°55' E 009°11'0 0.0
2015-Feb-06 15:32N 53°55' E 009°11'0 0.0
2015-Feb-06 14:32N 53°55' E 009°11'0 0.0
2015-Feb-06 13:32N 53°55' E 009°11'0 0.2
2015-Feb-06 12:32N 53°55' E 009°11'0 0.0
2015-Feb-06 11:33N 53°55' E 009°11'0 0.0
2015-Feb-06 10:33N 53°55' E 009°11'0 0.0
2015-Feb-06 09:33N 53°55' E 009°11'0 0.0
2015-Feb-06 08:33N 53°55' E 009°11'0 0.0
2015-Feb-06 07:33N 53°55' E 009°11'5 5.0
2015-Feb-06 06:33N 53°59' E 009°17'7 7.2
2015-Feb-06 05:33N 54°06' E 009°20'11 5.3
2015-Feb-06 03:33N 54°12' E 009°34'6 6.2
2015-Feb-06 02:31N 54°18' E 009°40'2 2.3
2015-Feb-06 01:33N 54°19' E 009°43'5 5.0
2015-Feb-06 00:33N 54°22' E 009°50'6 6.2
2015-Feb-05 23:33N 54°21' E 010°01'3 3.0
2015-Feb-05 22:33N 54°22' E 010°06'2 1.7
2015-Feb-05 21:33N 54°22' E 010°09'7 6.9
2015-Feb-05 20:33N 54°28' E 010°15'1110.9
2015-Feb-05 19:33N 54°33' E 010°31'4013.2
2015-Feb-05 16:33N 54°28' E 011°39'1413.8
2015-Feb-05 15:32N 54°26' E 012°03'1212.6
2015-Feb-05 14:34N 54°36' E 012°15'1413.6
2015-Feb-05 13:34N 54°44' E 012°33'1313.4
2015-Feb-05 12:34N 54°50' E 012°54'1413.7
2015-Feb-05 11:30N 54°54' E 013°18'1314.0
2015-Feb-05 10:33N 54°59' E 013°40'1913.6
2015-Feb-05 09:11N 55°07' E 014°09'1013.8
2015-Feb-05 08:26N 55°15' E 014°20'11 3.5
2015-Feb-05 05:17N 55°25' E 014°29'0 0.0
2015-Feb-05 03:29N 55°25' E 014°29'0 0.0
2015-Feb-05 02:23N 55°25' E 014°29'0 0.0
2015-Feb-04 21:15N 55°25' E 014°29'6 9.2
2015-Feb-04 20:33N 55°27' E 014°40'1414.0
2015-Feb-04 19:31N 55°34' E 015°02'  

Dump ship's entire track history